Time;durP1;ratioP1;P1;durP2;ratioP2;P2;SDS_P1;SDS_P2;PMS_P1;PMS_P2;Temp;Humidity;BMP_temperature;BMP_pressure;BME280_temperature;BME280_humidity;BME280_pressure;Samples;Min_cycle;Max_cycle;Signal;HPM_P1;HPM_P2
2021/09/22 00:00:22;;;;;;;1.88;1.20;;;20.10;96.70;;;;;;5102846;27;20045;-74
2021/09/22 00:02:51;;;;;;;1.30;1.02;;;20.10;96.70;;;;;;5124607;27;20074;-74
2021/09/22 00:05:20;;;;;;;3.10;1.25;;;20.00;96.70;;;;;;5125384;27;20522;-74
2021/09/22 00:07:49;;;;;;;2.33;1.30;;;19.90;96.70;;;;;;5119120;27;20051;-74
2021/09/22 00:10:20;;;;;;;1.80;1.38;;;19.90;96.70;;;;;;5117194;27;20038;-73
2021/09/22 00:12:49;;;;;;;2.65;1.08;;;20.00;96.70;;;;;;5121854;27;20039;-74
2021/09/22 00:15:20;;;;;;;2.63;1.17;;;20.00;96.70;;;;;;5122272;27;20099;-73
2021/09/22 00:17:54;;;;;;;1.15;1.05;;;20.00;96.70;;;;;;5099196;27;20501;-74
2021/09/22 00:20:24;;;;;;;2.55;1.20;;;20.00;96.70;;;;;;5114450;27;20054;-74
2021/09/22 00:23:03;;;;;;;2.35;0.95;;;20.00;96.70;;;;;;5120203;27;20047;-74
2021/09/22 00:25:37;;;;;;;2.85;1.00;;;20.10;96.70;;;;;;5099786;27;20435;-74
2021/09/22 00:28:07;;;;;;;1.48;0.90;;;20.10;96.70;;;;;;5113757;27;20321;-74
2021/09/22 00:30:36;;;;;;;2.00;1.00;;;20.10;96.70;;;;;;5107957;27;20039;-74
2021/09/22 00:33:07;;;;;;;1.88;1.00;;;20.00;96.70;;;;;;5109177;27;20040;-73
2021/09/22 00:35:36;;;;;;;2.38;1.10;;;20.00;96.70;;;;;;5116728;27;20044;-75
2021/09/22 00:38:06;;;;;;;2.30;0.85;;;20.00;96.70;;;;;;5101885;27;20059;-74
2021/09/22 00:40:37;;;;;;;1.75;0.80;;;20.00;96.70;;;;;;5120704;27;20047;-75
2021/09/22 00:43:05;;;;;;;1.65;0.85;;;19.90;96.70;;;;;;5116372;27;20048;-73
2021/09/22 00:45:34;;;;;;;1.38;0.63;;;19.90;96.70;;;;;;5121853;27;20043;-74
2021/09/22 00:48:03;;;;;;;1.48;0.60;;;19.80;96.70;;;;;;5097988;27;20040;-74
2021/09/22 00:50:47;;;;;;;0.90;0.60;;;19.80;96.70;;;;;;5118529;27;20035;-74
2021/09/22 00:53:17;;;;;;;1.50;0.70;;;19.70;96.70;;;;;;5111908;27;20046;-74
2021/09/22 00:55:48;;;;;;;1.77;0.75;;;19.80;96.70;;;;;;5114096;27;20050;-73
2021/09/22 00:58:25;;;;;;;1.52;0.73;;;19.80;96.70;;;;;;5122301;27;20043;-74
2021/09/22 01:00:54;;;;;;;3.70;0.88;;;19.70;96.70;;;;;;5114795;27;20037;-74
2021/09/22 01:03:25;;;;;;;0.90;0.60;;;19.70;96.70;;;;;;5123205;27;20416;-73
2021/09/22 01:05:55;;;;;;;3.63;0.80;;;19.60;96.70;;;;;;5095535;27;20067;-74
2021/09/22 01:08:24;;;;;;;1.63;0.50;;;19.60;96.70;;;;;;5116039;27;20062;-74
2021/09/22 01:10:54;;;;;;;1.42;0.65;;;19.60;96.70;;;;;;5124499;27;20062;-74
2021/09/22 01:13:22;;;;;;;1.25;0.60;;;19.70;96.70;;;;;;5121168;27;20031;-74
2021/09/22 01:15:51;;;;;;;1.55;0.70;;;19.70;96.70;;;;;;5115862;27;20426;-73
2021/09/22 01:18:22;;;;;;;1.77;0.55;;;19.70;96.70;;;;;;5116557;27;20400;-74
2021/09/22 01:20:52;;;;;;;1.85;0.60;;;19.80;96.70;;;;;;5112319;27;20043;-74
2021/09/22 01:23:25;;;;;;;1.10;0.60;;;19.60;96.70;;;;;;5115737;27;20043;-74
2021/09/22 01:25:58;;;;;;;0.77;0.57;;;19.60;96.70;;;;;;5113022;27;20047;-73
2021/09/22 01:28:29;;;;;;;0.82;0.60;;;19.70;96.70;;;;;;5112192;27;20040;-74
2021/09/22 01:31:01;;;;;;;0.63;0.57;;;19.70;96.70;;;;;;5115700;27;20051;-74
2021/09/22 01:33:32;;;;;;;2.22;0.85;;;19.70;96.70;;;;;;5121021;27;20055;-73
2021/09/22 01:36:15;;;;;;;1.38;0.70;;;19.80;96.70;;;;;;5120102;27;20151;-74
2021/09/22 01:38:52;;;;;;;1.20;0.70;;;19.80;96.70;;;;;;5123476;27;20111;-74
2021/09/22 01:41:20;;;;;;;1.30;0.70;;;19.80;96.70;;;;;;5115771;27;20057;-74
2021/09/22 01:44:09;;;;;;;1.40;0.50;;;19.80;96.70;;;;;;5116621;27;20519;-74
2021/09/22 01:47:10;;;;;;;2.53;0.65;;;19.70;96.70;;;;;;5030032;28;20041;-74
2021/09/22 01:50:00;;;;;;;0.90;0.55;;;19.60;96.70;;;;;;5019806;28;20566;-74
2021/09/22 01:52:31;;;;;;;1.77;0.95;;;19.60;96.70;;;;;;5016484;28;20053;-74
2021/09/22 01:55:13;;;;;;;1.80;0.70;;;19.60;96.70;;;;;;5020341;28;20427;-74
2021/09/22 01:57:43;;;;;;;1.33;0.68;;;19.60;96.70;;;;;;5028026;28;20053;-74
2021/09/22 02:00:17;;;;;;;1.50;0.93;;;19.50;96.70;;;;;;5021500;28;20318;-73
2021/09/22 02:02:48;;;;;;;1.50;0.65;;;19.50;96.70;;;;;;5026200;28;20055;-74
2021/09/22 02:05:23;;;;;;;1.80;0.68;;;19.50;96.70;;;;;;5021832;28;20045;-73
2021/09/22 02:07:59;;;;;;;0.93;0.60;;;19.50;96.70;;;;;;5025693;28;20402;-74
2021/09/22 02:10:32;;;;;;;1.85;1.00;;;19.50;96.70;;;;;;5024885;28;20809;-74
2021/09/22 02:13:01;;;;;;;2.10;0.63;;;19.50;96.70;;;;;;5021235;28;20439;-75
2021/09/22 02:15:30;;;;;;;1.20;0.73;;;19.40;96.70;;;;;;5018897;28;20073;-75
2021/09/22 02:18:17;;;;;;;1.42;0.80;;;19.30;96.70;;;;;;5041833;28;20213;-74
2021/09/22 02:20:48;;;;;;;1.65;1.20;;;19.30;96.70;;;;;;5023734;28;20148;-74
2021/09/22 02:23:23;;;;;;;1.30;1.00;;;19.30;96.70;;;;;;5086621;27;20112;-74
2021/09/22 02:25:55;;;;;;;2.97;1.30;;;19.30;96.70;;;;;;5121126;27;20320;-75
2021/09/22 02:28:25;;;;;;;1.30;1.10;;;19.30;96.70;;;;;;5119254;27;20130;-74
2021/09/22 02:30:53;;;;;;;2.35;0.90;;;19.10;96.70;;;;;;5112151;27;20066;-74
2021/09/22 02:33:23;;;;;;;0.90;0.73;;;19.10;96.70;;;;;;5108753;27;20047;-74
2021/09/22 02:35:52;;;;;;;1.48;1.08;;;19.10;96.70;;;;;;5107529;27;20063;-74
2021/09/22 02:38:22;;;;;;;1.23;0.82;;;19.00;96.70;;;;;;5113820;27;20055;-74
2021/09/22 02:40:51;;;;;;;2.25;1.02;;;19.00;96.70;;;;;;5106959;28;20047;-74
2021/09/22 02:43:25;;;;;;;4.03;1.10;;;18.90;96.70;;;;;;5119171;27;20043;-74
2021/09/22 02:45:54;;;;;;;1.30;0.90;;;18.90;96.70;;;;;;5124203;27;20503;-74
2021/09/22 02:48:52;;;;;;;2.40;1.10;;;18.80;96.70;;;;;;5115352;28;20130;-74
2021/09/22 02:51:21;;;;;;;2.05;0.93;;;18.80;96.70;;;;;;5109535;27;20044;-74
2021/09/22 02:53:49;;;;;;;2.83;0.95;;;18.80;96.70;;;;;;5096356;28;20035;-74
2021/09/22 02:56:19;;;;;;;1.70;0.80;;;18.80;96.70;;;;;;5110214;27;20043;-74
2021/09/22 02:58:48;;;;;;;1.73;1.30;;;18.70;96.70;;;;;;5112482;28;20058;-75
2021/09/22 03:01:16;;;;;;;2.03;1.10;;;18.70;96.70;;;;;;5125267;27;20043;-74
2021/09/22 03:03:45;;;;;;;2.92;1.10;;;18.70;96.70;;;;;;5118472;27;20043;-74
2021/09/22 03:06:14;;;;;;;2.05;1.17;;;18.70;96.70;;;;;;5124394;27;20115;-74
2021/09/22 03:08:42;;;;;;;2.67;1.02;;;18.70;96.70;;;;;;5124699;27;20088;-75
2021/09/22 03:11:10;;;;;;;3.70;1.20;;;18.70;96.70;;;;;;5114180;27;20051;-74
2021/09/22 03:13:39;;;;;;;2.35;1.00;;;18.70;96.70;;;;;;5120123;27;20049;-74
2021/09/22 03:16:09;;;;;;;2.40;1.10;;;18.70;96.70;;;;;;5123746;27;20042;-74
2021/09/22 03:18:39;;;;;;;2.03;1.10;;;18.70;96.70;;;;;;5111203;27;20084;-74
2021/09/22 03:21:08;;;;;;;2.25;1.40;;;18.60;96.70;;;;;;5115187;27;20053;-75
2021/09/22 03:23:38;;;;;;;2.45;1.23;;;18.50;96.70;;;;;;5124325;27;20605;-74
2021/09/22 03:26:06;;;;;;;2.30;1.08;;;18.50;96.70;;;;;;5120012;27;20050;-74
2021/09/22 03:28:36;;;;;;;1.88;1.20;;;18.50;96.70;;;;;;5124246;27;20519;-74
2021/09/22 03:31:05;;;;;;;2.17;1.08;;;18.50;96.70;;;;;;5115686;27;20043;-74
2021/09/22 03:33:36;;;;;;;2.42;1.05;;;18.40;96.70;;;;;;5115715;27;20095;-74
2021/09/22 03:36:04;;;;;;;2.50;1.30;;;18.30;96.70;;;;;;5105023;27;20039;-74
2021/09/22 03:38:33;;;;;;;2.38;1.00;;;18.10;96.70;;;;;;5138981;27;20142;-74
2021/09/22 03:41:01;;;;;;;4.47;1.20;;;18.00;96.70;;;;;;5115218;27;20052;-75
2021/09/22 03:43:30;;;;;;;3.75;1.30;;;18.00;96.70;;;;;;5120085;27;20047;-74
2021/09/22 03:46:01;;;;;;;3.03;1.13;;;18.00;96.70;;;;;;5113894;27;20066;-74
2021/09/22 03:48:30;;;;;;;1.85;1.15;;;17.90;96.70;;;;;;5122833;27;20047;-74
2021/09/22 03:51:00;;;;;;;4.82;1.17;;;18.00;96.70;;;;;;5102930;27;20036;-73
2021/09/22 03:53:35;;;;;;;2.42;1.15;;;18.00;96.70;;;;;;5118038;27;20522;-75
2021/09/22 03:56:03;;;;;;;3.75;1.58;;;17.90;96.70;;;;;;5106567;27;20408;-74
2021/09/22 03:58:32;;;;;;;2.42;1.10;;;17.90;96.70;;;;;;5117984;27;20280;-75
2021/09/22 04:01:00;;;;;;;4.10;1.30;;;17.80;96.70;;;;;;5105795;27;20043;-74
2021/09/22 04:03:30;;;;;;;2.03;1.33;;;17.80;96.70;;;;;;5113278;27;20051;-75
2021/09/22 04:06:00;;;;;;;2.63;1.30;;;17.70;96.70;;;;;;5120870;27;20358;-75
2021/09/22 04:08:28;;;;;;;3.33;1.48;;;17.70;96.70;;;;;;5109399;27;20088;-74
2021/09/22 04:10:56;;;;;;;2.03;1.00;;;17.70;96.70;;;;;;5119409;27;20045;-74
2021/09/22 04:13:25;;;;;;;3.63;1.20;;;17.80;96.70;;;;;;5118662;27;20036;-74
2021/09/22 04:15:55;;;;;;;3.35;1.38;;;17.80;96.70;;;;;;5124615;27;20043;-75
2021/09/22 04:18:25;;;;;;;3.38;1.15;;;17.80;96.70;;;;;;5116397;27;20047;-74
2021/09/22 04:20:53;;;;;;;3.50;1.40;;;17.80;96.70;;;;;;5119446;27;20401;-74
2021/09/22 04:23:25;;;;;;;2.70;1.13;;;17.70;96.70;;;;;;5118540;27;20504;-74
2021/09/22 04:25:53;;;;;;;1.45;1.13;;;17.80;96.70;;;;;;5114328;27;20397;-75
2021/09/22 04:28:22;;;;;;;2.22;1.10;;;17.70;96.70;;;;;;5114823;27;20047;-74
2021/09/22 04:31:08;;;;;;;2.03;1.38;;;17.60;96.70;;;;;;5125078;27;20119;-74
2021/09/22 04:33:56;;;;;;;4.95;1.60;;;17.60;96.70;;;;;;5114794;27;20055;-75
2021/09/22 04:36:43;;;;;;;2.70;1.30;;;17.50;96.70;;;;;;5114127;27;20067;-74
2021/09/22 04:39:32;;;;;;;3.25;1.42;;;17.40;96.70;;;;;;5115948;27;20104;-74
2021/09/22 04:42:19;;;;;;;3.13;1.20;;;17.40;96.70;;;;;;5117663;27;20055;-75
2021/09/22 04:45:07;;;;;;;3.83;1.58;;;17.50;96.70;;;;;;5115894;27;20523;-75
2021/09/22 04:47:54;;;;;;;1.85;1.23;;;17.40;96.70;;;;;;5116300;27;20089;-74
2021/09/22 04:50:41;;;;;;;4.97;1.80;;;17.30;96.70;;;;;;5113105;27;20168;-73
2021/09/22 04:53:29;;;;;;;3.53;1.48;;;17.40;96.70;;;;;;5119875;27;20047;-74
2021/09/22 04:56:19;;;;;;;3.88;1.77;;;17.50;96.70;;;;;;5112322;27;20527;-74
2021/09/22 04:59:06;;;;;;;4.95;2.30;;;17.50;96.70;;;;;;5123749;27;20136;-74
2021/09/22 05:01:52;;;;;;;3.63;2.42;;;17.50;96.70;;;;;;5123340;27;20051;-74
2021/09/22 05:04:40;;;;;;;4.20;2.10;;;17.40;96.70;;;;;;5117222;27;20569;-74
2021/09/22 05:07:26;;;;;;;2.90;1.70;;;17.40;96.70;;;;;;5117340;27;20135;-74
2021/09/22 05:10:13;;;;;;;6.57;2.15;;;17.30;96.70;;;;;;5112687;27;20589;-74
2021/09/22 05:13:01;;;;;;;5.63;1.83;;;17.40;96.70;;;;;;5115817;27;20464;-74
2021/09/22 05:15:48;;;;;;;2.72;1.70;;;17.40;96.70;;;;;;5108762;27;20510;-74
2021/09/22 05:18:34;;;;;;;;;;;17.40;96.70;;;;;;5122541;27;20524;-74
2021/09/22 05:21:22;;;;;;;4.35;1.77;;;17.30;96.70;;;;;;5097624;27;19974;-74
2021/09/22 05:24:09;;;;;;;3.88;2.17;;;17.40;96.70;;;;;;5116598;27;20066;-74
2021/09/22 05:26:56;;;;;;;5.13;2.40;;;17.40;96.70;;;;;;5123102;27;20107;-74
2021/09/22 05:29:44;;;;;;;5.43;2.20;;;17.40;96.70;;;;;;5110259;27;20161;-74
2021/09/22 05:32:31;;;;;;;6.13;2.20;;;17.30;96.70;;;;;;5125149;27;20057;-74
2021/09/22 05:35:18;;;;;;;5.07;2.10;;;17.20;96.70;;;;;;5114166;27;20054;-74
2021/09/22 05:38:05;;;;;;;4.60;1.92;;;17.20;96.70;;;;;;5121153;27;20115;-74
2021/09/22 05:40:52;;;;;;;4.80;1.92;;;17.20;96.70;;;;;;5120663;27;20192;-74
2021/09/22 05:43:38;;;;;;;4.07;1.73;;;17.30;96.70;;;;;;5115616;27;20151;-74
2021/09/22 05:46:26;;;;;;;1.50;1.10;;;17.30;96.70;;;;;;5125720;27;20050;-75
2021/09/22 05:49:13;;;;;;;6.15;1.70;;;17.40;96.70;;;;;;5113499;27;20108;-74
2021/09/22 05:52:00;;;;;;;3.53;1.73;;;17.50;96.70;;;;;;5117789;27;20078;-77
2021/09/22 05:54:48;;;;;;;4.55;1.90;;;17.40;96.70;;;;;;5119358;27;20184;-78
2021/09/22 05:57:35;;;;;;;3.17;1.63;;;17.40;96.70;;;;;;5110455;27;20051;-78
2021/09/22 06:00:21;;;;;;;;;;;17.50;96.70;;;;;;5114460;27;20181;-77
2021/09/22 06:03:10;;;;;;;2.97;1.80;;;17.50;96.70;;;;;;5127866;27;20378;-77
2021/09/22 06:05:57;;;;;;;5.20;1.80;;;17.60;96.70;;;;;;5124660;27;20507;-73
2021/09/22 06:08:58;;;;;;;6.97;2.53;;;17.70;96.70;;;;;;5114957;27;20046;-73
2021/09/22 06:11:40;;;;;;;9.82;4.28;;;17.80;96.70;;;;;;5106238;27;20052;-73
2021/09/22 06:14:11;;;;;;;11.73;5.72;;;17.60;96.70;;;;;;5109514;27;20068;-73
2021/09/22 06:16:40;;;;;;;14.82;5.80;;;17.70;96.70;;;;;;5099617;27;20043;-73
2021/09/22 06:19:31;;;;;;;14.50;5.10;;;17.80;96.70;;;;;;5112781;27;20052;-75
2021/09/22 06:21:59;;;;;;;11.57;4.72;;;17.90;96.70;;;;;;5105245;28;20052;-74
2021/09/22 06:24:40;;;;;;;9.93;4.90;;;17.90;96.70;;;;;;5114872;27;20580;-74
2021/09/22 06:27:13;;;;;;;9.57;4.45;;;17.80;96.70;;;;;;5104311;27;20055;-74
2021/09/22 06:29:45;;;;;;;10.98;4.38;;;17.80;96.70;;;;;;5115636;27;20524;-74
2021/09/22 06:32:13;;;;;;;6.25;2.80;;;17.80;96.70;;;;;;5107612;27;20051;-73
2021/09/22 06:35:02;;;;;;;5.55;2.95;;;17.80;96.70;;;;;;5103248;27;20062;-71
2021/09/22 06:37:40;;;;;;;4.68;2.60;;;17.80;96.70;;;;;;5116304;27;20035;-72
2021/09/22 06:40:14;;;;;;;4.03;2.25;;;17.90;96.70;;;;;;5121241;27;20519;-72
2021/09/22 06:42:43;;;;;;;3.63;3.00;;;17.90;96.70;;;;;;5127583;27;20032;-72
2021/09/22 06:45:11;;;;;;;7.43;3.63;;;18.00;96.70;;;;;;5113864;28;20130;-72
2021/09/22 06:47:40;;;;;;;4.85;3.58;;;18.00;96.70;;;;;;5124063;27;20049;-72
2021/09/22 06:50:10;;;;;;;5.40;3.63;;;18.00;96.70;;;;;;5121218;27;20047;-72
2021/09/22 06:52:39;;;;;;;4.93;2.70;;;18.10;96.70;;;;;;5108875;27;20587;-71
2021/09/22 06:55:08;;;;;;;5.63;2.78;;;18.10;96.70;;;;;;5088557;27;20508;-72
2021/09/22 06:57:36;;;;;;;5.00;2.83;;;18.20;96.70;;;;;;5081414;27;20044;-72
2021/09/22 07:00:11;;;;;;;6.13;3.03;;;18.20;96.70;;;;;;5088266;27;20162;-71
2021/09/22 07:02:39;;;;;;;4.32;2.58;;;18.30;96.70;;;;;;5093354;27;20062;-72
2021/09/22 07:05:11;;;;;;;4.25;3.33;;;18.30;96.70;;;;;;5076635;27;20201;-72
2021/09/22 07:07:40;;;;;;;9.35;3.72;;;18.40;96.70;;;;;;5080178;27;20126;-72
2021/09/22 07:10:09;;;;;;;6.40;4.13;;;18.50;96.70;;;;;;5095900;27;20050;-72
2021/09/22 07:12:43;;;;;;;6.82;3.80;;;18.60;96.70;;;;;;5108173;27;20042;-72
2021/09/22 07:15:12;;;;;;;5.65;2.90;;;18.70;96.70;;;;;;5106854;27;20049;-71
2021/09/22 07:17:40;;;;;;;4.68;2.70;;;18.70;96.70;;;;;;5105922;27;20046;-72
2021/09/22 07:20:11;;;;;;;4.68;2.63;;;18.80;96.70;;;;;;5107947;27;20412;-72
2021/09/22 07:22:39;;;;;;;5.20;2.97;;;19.00;96.70;;;;;;5108182;27;20481;-71
2021/09/22 07:25:09;;;;;;;4.15;2.80;;;19.00;96.70;;;;;;5114988;27;20385;-72
2021/09/22 07:27:38;;;;;;;4.15;2.95;;;19.10;96.70;;;;;;5104302;28;20100;-72
2021/09/22 07:30:09;;;;;;;3.13;2.42;;;19.20;96.70;;;;;;5121763;27;20039;-72
2021/09/22 07:32:37;;;;;;;4.18;2.10;;;19.20;96.70;;;;;;5118907;27;20130;-72
2021/09/22 07:35:06;;;;;;;2.83;2.25;;;19.30;96.70;;;;;;5108909;27;20054;-72
2021/09/22 07:37:36;;;;;;;3.60;2.17;;;19.30;96.70;;;;;;5106978;28;20468;-72
2021/09/22 07:40:07;;;;;;;3.80;2.60;;;19.30;96.70;;;;;;5118589;27;20571;-72
2021/09/22 07:42:35;;;;;;;3.80;2.38;;;19.40;96.70;;;;;;5113755;27;20044;-72
2021/09/22 07:45:06;;;;;;;3.28;2.55;;;19.40;96.70;;;;;;5106812;27;20042;-72
2021/09/22 07:47:34;;;;;;;5.65;2.22;;;19.50;96.70;;;;;;5119610;27;20104;-72
2021/09/22 07:50:03;;;;;;;3.15;2.17;;;19.50;96.70;;;;;;5116456;27;20042;-72
2021/09/22 07:52:31;;;;;;;5.13;2.67;;;19.60;96.70;;;;;;5113852;27;20067;-72
2021/09/22 07:55:02;;;;;;;3.90;2.78;;;19.60;96.70;;;;;;5113617;27;20039;-71
2021/09/22 07:57:31;;;;;;;3.35;2.58;;;19.70;96.70;;;;;;5125406;27;20039;-72
2021/09/22 08:00:00;;;;;;;4.03;3.03;;;19.80;96.70;;;;;;5116037;27;20353;-72
2021/09/22 08:02:38;;;;;;;6.68;2.90;;;19.80;96.70;;;;;;5116460;27;20058;-72
2021/09/22 08:05:08;;;;;;;4.88;3.30;;;19.90;96.70;;;;;;5119589;27;20043;-72
2021/09/22 08:07:44;;;;;;;6.72;3.88;;;20.00;96.70;;;;;;5120897;27;20039;-72
2021/09/22 08:10:15;;;;;;;5.63;3.83;;;20.00;96.70;;;;;;5124649;27;20504;-72
2021/09/22 08:12:46;;;;;;;7.00;3.92;;;20.10;96.70;;;;;;5125315;27;20062;-72
2021/09/22 08:15:15;;;;;;;5.75;3.83;;;20.20;96.70;;;;;;5123898;27;20067;-73
2021/09/22 08:17:43;;;;;;;8.63;3.92;;;20.30;96.70;;;;;;5114367;27;20051;-72
2021/09/22 08:20:15;;;;;;;6.15;3.92;;;20.40;96.70;;;;;;5125497;27;20069;-72
2021/09/22 08:22:45;;;;;;;6.57;3.65;;;20.50;96.70;;;;;;5131014;27;20440;-72
2021/09/22 08:25:15;;;;;;;5.95;3.10;;;20.60;96.70;;;;;;5118243;27;20119;-72
2021/09/22 08:27:43;;;;;;;5.90;3.08;;;20.60;96.70;;;;;;5123599;27;20541;-72
2021/09/22 08:30:13;;;;;;;3.88;2.88;;;20.70;96.70;;;;;;5120718;27;20719;-72
2021/09/22 08:32:41;;;;;;;7.13;2.88;;;20.90;96.70;;;;;;5109279;27;20039;-72
2021/09/22 08:35:10;;;;;;;5.20;2.65;;;21.00;96.70;;;;;;5121561;27;20063;-72
2021/09/22 08:37:39;;;;;;;5.57;2.92;;;21.10;96.70;;;;;;5124983;27;20108;-72
2021/09/22 08:40:09;;;;;;;5.50;2.60;;;21.10;96.70;;;;;;5119718;27;20413;-72
2021/09/22 08:42:40;;;;;;;3.20;2.10;;;21.30;96.70;;;;;;5110663;27;20047;-72
2021/09/22 08:45:11;;;;;;;4.68;2.20;;;21.40;96.70;;;;;;5115601;27;20040;-72
2021/09/22 08:47:41;;;;;;;3.75;2.10;;;21.40;96.70;;;;;;5114448;27;20057;-72
2021/09/22 08:50:11;;;;;;;3.20;2.20;;;21.50;96.70;;;;;;5112018;27;20135;-72
2021/09/22 08:52:40;;;;;;;4.10;2.05;;;21.50;96.70;;;;;;5115160;27;20046;-72
2021/09/22 08:55:09;;;;;;;2.70;2.03;;;21.60;96.70;;;;;;5120839;27;20040;-72
2021/09/22 08:57:39;;;;;;;3.30;2.10;;;21.70;96.70;;;;;;5119065;27;20036;-72
2021/09/22 09:00:10;;;;;;;3.50;2.70;;;21.90;96.70;;;;;;5123570;27;20461;-72
2021/09/22 09:02:40;;;;;;;4.97;2.90;;;21.90;96.70;;;;;;5119436;27;20454;-72
2021/09/22 09:05:11;;;;;;;3.90;2.47;;;21.90;96.70;;;;;;5121024;27;20088;-71
2021/09/22 09:07:51;;;;;;;3.25;2.10;;;22.00;96.70;;;;;;5115801;27;20036;-72
2021/09/22 09:10:22;;;;;;;4.60;2.65;;;22.10;96.70;;;;;;5119517;27;20572;-72
2021/09/22 09:13:04;;;;;;;4.55;2.53;;;22.20;96.70;;;;;;5113212;27;20159;-72
2021/09/22 09:15:35;;;;;;;3.95;2.13;;;22.20;96.70;;;;;;5111595;27;20134;-72
2021/09/22 09:18:11;;;;;;;4.00;1.95;;;22.40;96.70;;;;;;5113866;27;20039;-72
2021/09/22 09:20:39;;;;;;;4.87;2.03;;;22.40;96.70;;;;;;5118549;27;20171;-73
2021/09/22 09:23:10;;;;;;;2.05;1.50;;;22.60;96.70;;;;;;5122690;27;20039;-72
2021/09/22 09:25:40;;;;;;;4.72;2.00;;;22.70;96.70;;;;;;5109077;27;20039;-72
2021/09/22 09:28:18;;;;;;;8.45;2.25;;;22.90;96.70;;;;;;5123147;27;20523;-72
2021/09/22 09:30:48;;;;;;;5.03;1.80;;;23.00;95.90;;;;;;5110176;27;20090;-72
2021/09/22 09:33:40;;;;;;;2.00;1.60;;;23.00;96.30;;;;;;5101185;27;20113;-73
2021/09/22 09:36:33;;;;;;;2.58;1.80;;;22.90;95.80;;;;;;5120316;27;20036;-72
2021/09/22 09:39:07;;;;;;;4.68;1.98;;;23.10;96.70;;;;;;5111248;27;20043;-73
2021/09/22 09:41:39;;;;;;;2.83;1.63;;;23.40;96.50;;;;;;5111352;27;20055;-73
2021/09/22 09:44:11;;;;;;;4.97;1.73;;;23.40;95.10;;;;;;5108206;27;20500;-72
2021/09/22 09:46:39;;;;;;;3.90;1.40;;;23.30;95.10;;;;;;5106112;27;20055;-72
2021/09/22 09:49:10;;;;;;;2.22;1.60;;;23.40;95.00;;;;;;5113864;27;20074;-72
2021/09/22 09:51:42;;;;;;;3.40;1.30;;;23.50;94.80;;;;;;5110127;27;20134;-73
2021/09/22 09:54:14;;;;;;;2.20;1.33;;;23.60;94.50;;;;;;5110015;27;20088;-72
2021/09/22 09:56:42;;;;;;;1.35;1.20;;;23.60;94.50;;;;;;5118253;27;20132;-72
2021/09/22 09:59:12;;;;;;;1.50;1.00;;;23.80;93.90;;;;;;5113509;27;20146;-72
2021/09/22 10:01:43;;;;;;;1.83;1.30;;;24.00;93.90;;;;;;5116396;27;20043;-72
2021/09/22 10:04:14;;;;;;;4.38;1.20;;;24.10;93.10;;;;;;5111495;27;20159;-73
2021/09/22 10:06:43;;;;;;;1.25;0.90;;;24.20;93.20;;;;;;5114569;27;20062;-72
2021/09/22 10:09:12;;;;;;;1.50;1.10;;;24.30;93.00;;;;;;5110319;27;20084;-73
2021/09/22 10:11:44;;;;;;;1.48;1.02;;;24.50;92.00;;;;;;5115467;27;20401;-72
2021/09/22 10:14:17;;;;;;;2.03;0.80;;;24.70;92.40;;;;;;5095331;27;20042;-72
2021/09/22 10:16:50;;;;;;;2.03;1.05;;;24.60;92.00;;;;;;5116487;27;20134;-72
2021/09/22 10:19:20;;;;;;;1.95;0.85;;;24.80;90.50;;;;;;5107941;27;20075;-72
2021/09/22 10:21:49;;;;;;;3.13;0.90;;;24.80;90.90;;;;;;5125794;27;20402;-72
2021/09/22 10:24:17;;;;;;;1.83;0.90;;;24.90;90.50;;;;;;5120601;27;20046;-73
2021/09/22 10:26:46;;;;;;;1.63;1.13;;;25.00;90.50;;;;;;5113091;27;20046;-72
2021/09/22 10:29:35;;;;;;;1.50;0.75;;;25.20;90.30;;;;;;5118380;27;20035;-73
2021/09/22 10:32:06;;;;;;;1.02;0.70;;;25.20;89.80;;;;;;5111895;27;20050;-72
2021/09/22 10:34:36;;;;;;;1.08;0.75;;;25.20;89.30;;;;;;5118949;27;20077;-73
2021/09/22 10:37:25;;;;;;;1.00;0.60;;;25.20;90.20;;;;;;5114934;27;20035;-73
2021/09/22 10:39:53;;;;;;;0.80;0.68;;;25.30;89.80;;;;;;5119178;27;20035;-73
2021/09/22 10:42:29;;;;;;;0.80;0.70;;;25.50;88.60;;;;;;5112452;27;20039;-72
2021/09/22 10:45:15;;;;;;;;;;;25.40;89.10;;;;;;5116346;27;20034;-73
2021/09/22 10:47:44;;;;;;;2.08;0.70;;;25.20;89.60;;;;;;5114678;27;19923;-73
2021/09/22 10:50:46;;;;;;;1.08;0.55;;;25.30;89.10;;;;;;5111808;27;20058;-73
2021/09/22 10:53:36;;;;;;;2.22;0.90;;;25.60;89.00;;;;;;5115254;27;20138;-73
2021/09/22 10:56:07;;;;;;;2.65;0.70;;;25.70;88.80;;;;;;5120849;27;20043;-72
2021/09/22 10:58:40;;;;;;;0.95;0.80;;;25.70;88.00;;;;;;5121623;27;20043;-72
2021/09/22 11:01:10;;;;;;;1.85;0.80;;;25.60;88.40;;;;;;5109236;27;20501;-73
2021/09/22 11:03:55;;;;;;;2.78;0.90;;;25.70;88.10;;;;;;5109162;27;20095;-72
2021/09/22 11:06:52;;;;;;;2.08;0.63;;;25.60;88.70;;;;;;5102179;27;20156;-73
2021/09/22 11:09:32;;;;;;;1.75;0.80;;;25.70;88.00;;;;;;5094059;27;20420;-73
2021/09/22 11:12:11;;;;;;;2.60;0.88;;;25.90;87.60;;;;;;5099402;27;20045;-73
2021/09/22 11:14:48;;;;;;;1.83;0.90;;;26.20;87.20;;;;;;5092300;27;20240;-73
2021/09/22 11:17:21;;;;;;;1.13;0.88;;;26.30;86.80;;;;;;5090924;27;20058;-72
2021/09/22 11:19:52;;;;;;;1.60;0.77;;;26.40;87.30;;;;;;5093108;27;20043;-73
2021/09/22 11:22:22;;;;;;;1.02;0.70;;;26.70;86.10;;;;;;5095088;27;20047;-73
2021/09/22 11:24:54;;;;;;;3.90;0.70;;;26.70;86.30;;;;;;5103854;27;20984;-73
2021/09/22 11:27:23;;;;;;;2.08;0.70;;;26.60;85.40;;;;;;5104620;27;20412;-72
2021/09/22 11:29:53;;;;;;;1.08;0.70;;;26.70;86.00;;;;;;5123323;27;20059;-73
2021/09/22 11:32:36;;;;;;;2.50;0.70;;;26.60;85.80;;;;;;5104334;27;20051;-72
2021/09/22 11:35:06;;;;;;;1.55;0.70;;;26.40;85.70;;;;;;5105891;27;20062;-73
2021/09/22 11:37:37;;;;;;;1.25;0.70;;;26.30;86.50;;;;;;5089322;27;20051;-73
2021/09/22 11:40:15;;;;;;;1.05;0.70;;;26.40;86.70;;;;;;5099982;27;20530;-72
2021/09/22 11:42:54;;;;;;;1.17;0.85;;;26.60;86.60;;;;;;5096270;27;20442;-73
2021/09/22 11:45:23;;;;;;;1.38;0.60;;;26.70;85.10;;;;;;5104610;27;20082;-73
2021/09/22 11:47:53;;;;;;;2.08;0.70;;;26.80;85.30;;;;;;5107549;27;20043;-73
2021/09/22 11:50:26;;;;;;;0.90;0.60;;;26.90;85.70;;;;;;5096749;27;20039;-72
2021/09/22 11:52:54;;;;;;;1.58;0.57;;;26.90;85.50;;;;;;5095033;27;20442;-72
2021/09/22 11:55:23;;;;;;;2.15;0.80;;;26.80;86.00;;;;;;5105185;27;20035;-72
2021/09/22 11:57:51;;;;;;;0.40;0.40;;;27.00;85.70;;;;;;5106534;27;20473;-73
2021/09/22 12:00:21;;;;;;;5.15;1.00;;;27.20;85.80;;;;;;5105151;27;20046;-72
2021/09/22 12:02:49;;;;;;;2.67;0.90;;;27.30;84.60;;;;;;5097722;27;20394;-73
2021/09/22 12:05:20;;;;;;;2.30;0.80;;;27.40;83.80;;;;;;5097848;27;20070;-72
2021/09/22 12:07:54;;;;;;;1.02;0.70;;;27.30;84.50;;;;;;5100433;27;21017;-72
2021/09/22 12:10:23;;;;;;;3.90;0.80;;;27.40;84.80;;;;;;5098531;27;20557;-72
2021/09/22 12:12:51;;;;;;;0.98;0.65;;;27.40;83.90;;;;;;5108656;27;20410;-73
2021/09/22 12:15:19;;;;;;;3.13;0.75;;;27.50;83.60;;;;;;5107729;27;20486;-73
2021/09/22 12:17:49;;;;;;;1.90;0.88;;;27.70;83.70;;;;;;5106543;27;20404;-72
2021/09/22 12:20:19;;;;;;;0.98;0.50;;;27.60;83.20;;;;;;5106641;27;20523;-72
2021/09/22 12:22:58;;;;;;;1.58;0.60;;;27.60;83.20;;;;;;5107934;27;20047;-72
2021/09/22 12:25:27;;;;;;;0.80;0.68;;;27.80;83.00;;;;;;5105746;27;20736;-72
2021/09/22 12:27:56;;;;;;;2.75;0.70;;;27.90;82.80;;;;;;5107275;27;20403;-72
2021/09/22 12:30:31;;;;;;;0.85;0.60;;;27.90;83.50;;;;;;5107948;27;20042;-72
2021/09/22 12:33:00;;;;;;;1.33;0.80;;;28.10;83.00;;;;;;5115889;27;20051;-73
2021/09/22 12:35:32;;;;;;;3.90;0.60;;;28.10;82.20;;;;;;5090024;27;20396;-72
2021/09/22 12:38:03;;;;;;;0.60;0.60;;;28.20;82.00;;;;;;5090114;27;20039;-72
2021/09/22 12:40:32;;;;;;;1.02;0.70;;;28.30;81.90;;;;;;5085432;27;20496;-73
2021/09/22 12:43:02;;;;;;;2.65;0.63;;;28.20;82.20;;;;;;5108177;27;20066;-72
2021/09/22 12:45:32;;;;;;;2.42;0.85;;;28.40;81.90;;;;;;5107218;27;20176;-73
2021/09/22 12:48:03;;;;;;;2.38;0.60;;;28.40;80.90;;;;;;5122568;27;20031;-73
2021/09/22 12:50:35;;;;;;;0.90;0.60;;;28.40;80.80;;;;;;5107919;27;20035;-72
2021/09/22 12:53:05;;;;;;;3.05;0.73;;;28.50;81.30;;;;;;5106348;27;20035;-73
2021/09/22 12:55:37;;;;;;;2.90;0.68;;;28.40;81.60;;;;;;5107130;27;22023;-73
2021/09/22 12:58:06;;;;;;;2.05;0.70;;;28.40;81.60;;;;;;5106542;27;20047;-72
2021/09/22 13:00:43;;;;;;;1.40;0.70;;;28.50;81.60;;;;;;5105217;27;20846;-73
2021/09/22 13:03:14;;;;;;;1.85;1.02;;;28.50;80.50;;;;;;5106464;27;20108;-73
2021/09/22 13:05:45;;;;;;;1.63;0.70;;;28.60;80.90;;;;;;5105532;27;20497;-72
2021/09/22 13:08:15;;;;;;;1.20;0.95;;;28.60;80.90;;;;;;5108747;27;20046;-72
2021/09/22 13:10:58;;;;;;;1.80;0.63;;;28.60;79.70;;;;;;5105697;27;20036;-72
2021/09/22 13:13:35;;;;;;;2.13;0.80;;;28.60;80.30;;;;;;5105581;27;20121;-73
2021/09/22 13:16:33;;;;;;;2.83;0.90;;;28.60;79.90;;;;;;5104536;27;20051;-72
2021/09/22 13:19:04;;;;;;;1.20;0.60;;;28.70;81.20;;;;;;5105753;27;20119;-73
2021/09/22 13:21:36;;;;;;;0.95;0.70;;;28.80;80.70;;;;;;5104442;27;20043;-72